Latest Weather Observations for Dunalley

IDT60901

Issued at 5:51 pm EST Sunday 30 August 2015 (issued every 10 minutes, with the page automatically refreshed every 10 minutes)

About weather observations | Map of Hobart area stations | Latest observations for Hobart area | Other Formats
Station Details ID: 094254 Name: DUNALLEY (STROUD POINT) Lat: -42.90 Lon: 147.79 Height: 12.43 m
Data from the previous 72 hours. | See also: Recent months at Dunalley
Date/Time
EST
Tmp

°C
App
Tmp
°C
Dew
Point
°C
Rel
Hum
%
Delta-T

°C
Wind Press
QNH
hPa
Press
MSL
hPa
Rain
since
9 am
mm
Dir
 
Spd
km/h
Gust
km/h
Spd
kts
Gust
kts
30/05:30pm 8.2 2.8 6.3 88 0.9 SW 24 28 13 15 1023.7 1023.8 0.4
30/05:00pm 9.0 5.8 5.2 77 1.7 SSW 11 17 6 9 1023.5 1023.6 0.4
30/04:30pm 9.0 5.2 5.9 81 1.4 SSW 15 19 8 10 1023.7 1023.8 0.4
30/04:00pm 8.5 5.7 6.8 89 0.8 SSW 11 17 6 9 1023.7 1023.8 0.4
30/03:30pm 8.4 4.8 6.7 89 0.8 SSW 15 24 8 13 1023.7 1023.8 0.4
30/03:00pm 8.8 4.9 7.3 90 0.7 SW 17 22 9 12 1023.8 1023.9 0.2
30/02:30pm 8.6 4.1 7.1 90 0.7 SW 20 26 11 14 1023.8 1023.9 0.2
30/02:00pm 9.4 4.0 6.5 82 1.3 SW 24 28 13 15 1023.7 1023.8 0.2
30/01:30pm 8.7 3.0 6.5 86 1.0 SSW 26 32 14 17 1023.8 1023.9 0.2
30/01:00pm 9.5 3.6 6.0 79 1.6 SSW 26 32 14 17 1023.9 1024.0 0.2
30/12:30pm 8.8 2.9 5.9 82 1.3 SSW 26 35 14 19 1024.1 1024.2 0.2
30/12:00pm 8.8 2.6 6.3 84 1.1 SW 28 35 15 19 1024.7 1024.8 0.2
30/11:30am 8.8 3.7 5.9 82 1.3 SW 22 28 12 15 1024.9 1025.0 0.2
30/11:00am 8.5 4.2 7.0 90 0.7 SSW 19 20 10 11 1025.2 1025.3 0.2
30/10:30am 7.5 2.1 6.4 93 0.5 SSW 24 30 13 16 1025.4 1025.5 0.0
30/10:00am 7.6 1.0 5.9 89 0.8 SW 30 37 16 20 1025.5 1025.6 0.0
30/09:30am 8.2 1.7 4.6 78 1.6 SSW 28 32 15 17 1025.6 1025.7 0.0
30/09:00am 8.2 1.1 3.5 72 2.0 SSW 30 35 16 19 1025.5 1025.6 0.0
30/08:30am 7.9 2.1 4.3 78 1.6 SW 24 30 13 16 1025.4 1025.5 0.0
30/08:00am 7.5 0.5 4.3 80 1.4 SSW 30 39 16 21 1025.2 1025.3 0.0
30/07:30am 7.8 1.5 3.8 76 1.7 SSW 26 32 14 17 1024.9 1025.0 0.0
30/07:00am 7.4 1.8 5.4 87 0.9 SSW 24 37 13 20 1024.7 1024.8 0.0
30/06:30am 7.3 1.6 4.8 84 1.1 SSW 24 32 13 17 1024.5 1024.6 0.0
30/06:00am 7.0 1.0 5.5 90 0.7 SSW 26 35 14 19 1024.3 1024.4 0.0
30/05:30am 7.3 0.9 5.0 85 1.0 SSW 28 32 15 17 1024.1 1024.2 0.0
30/05:00am 6.9 0.1 5.1 88 0.8 SSW 30 41 16 22 1024.0 1024.1 0.0
30/04:30am 7.5 1.7 4.6 82 1.3 SSW 24 30 13 16 1023.9 1024.0 0.0
30/04:00am 7.0 1.8 5.5 90 0.7 SW 22 28 12 15 1024.0 1024.1 0.0
30/03:30am 7.0 0.6 5.3 89 0.8 SW 28 35 15 19 1024.0 1024.1 0.0
30/03:00am 7.2 1.1 5.0 86 1.0 SSW 26 35 14 19 1024.2 1024.3 0.0
30/02:30am 7.4 0.8 4.0 79 1.5 SW 28 33 15 18 1024.4 1024.5 0.0
30/02:00am 8.1 1.3 3.0 70 2.1 SSW 28 41 15 22 1024.5 1024.6 0.0
30/01:30am 8.1 0.9 2.8 69 2.2 SW 30 33 16 18 1024.7 1024.8 0.0
30/01:00am 8.0 -0.1 3.3 72 2.0 SW 35 44 19 24 1024.8 1024.9 0.0
30/12:30am 8.1 0.5 3.0 70 2.2 SW 32 39 17 21 1024.8 1024.9 0.0
30/12:00am 8.1 -0.2 2.4 67 2.4 SSW 35 43 19 23 1024.9 1025.0 0.0
 
Date/Time
EST
Tmp

°C
App
Tmp
°C
Dew
Point
°C
Rel
Hum
%
Delta-T

°C
Wind Press
QNH
hPa
Press
MSL
hPa
Rain
since
9 am
mm
Dir
 
Spd
km/h
Gust
km/h
Spd
kts
Gust
kts
29/11:30pm 8.0 0.1 2.3 67 2.4 SW 33 43 18 23 1025.0 1025.1 0.0
29/11:00pm 8.0 0.2 3.1 71 2.1 SSW 33 39 18 21 1025.1 1025.2 0.0
29/10:30pm 7.8 1.0 3.3 73 1.9 SSW 28 33 15 18 1025.1 1025.2 0.0
29/10:00pm 7.9 0.7 2.8 70 2.1 SSW 30 39 16 21 1025.2 1025.3 0.0
29/09:30pm 8.0 1.7 3.5 73 1.9 SSW 26 33 14 18 1025.2 1025.3 0.0
29/09:00pm 8.2 0.8 4.2 76 1.7 SSW 32 39 17 21 1025.0 1025.1 0.0
29/08:30pm 8.2 0.1 3.5 72 2.0 SSW 35 46 19 25 1024.7 1024.8 0.0
29/08:00pm 8.3 0.7 3.9 74 1.9 SSW 33 43 18 23 1024.6 1024.7 0.0
29/07:30pm 8.4 0.8 4.0 74 1.9 SSW 33 39 18 21 1024.2 1024.3 0.0
29/07:00pm 8.3 0.3 3.9 74 1.9 SSW 35 44 19 24 1024.1 1024.2 0.0
29/06:30pm 8.3 0.9 3.9 74 1.9 SSW 32 39 17 21 1023.8 1023.9 0.0
29/06:00pm 8.3 0.5 4.7 78 1.6 SSW 35 44 19 24 1023.4 1023.5 0.0
29/05:30pm 8.4 1.1 4.6 77 1.7 SSW 32 44 17 24 1023.1 1023.2 0.0
29/05:00pm 8.2 0.4 4.8 79 1.5 SSW 35 48 19 26 1022.7 1022.8 0.0
29/04:30pm 8.2 0.4 5.0 80 1.4 SSW 35 44 19 24 1022.4 1022.5 0.0
29/04:00pm 8.0 0.0 5.5 84 1.1 SSW 37 48 20 26 1022.3 1022.4 0.0
29/03:30pm 8.1 0.5 5.7 85 1.1 SSW 35 43 19 23 1022.2 1022.3 0.0
29/03:00pm 8.3 0.2 5.4 82 1.3 SSW 37 50 20 27 1022.2 1022.3 0.0
29/02:30pm 8.5 0.4 5.4 81 1.4 SSW 37 43 20 23 1021.8 1021.9 0.0
29/02:00pm 8.6 1.6 6.1 84 1.1 SSW 32 41 17 22 1021.8 1021.9 0.0
29/01:30pm 8.6 1.0 5.9 83 1.2 SSW 35 46 19 25 1021.5 1021.6 0.0
29/01:00pm 8.7 1.4 5.6 81 1.4 SSW 33 46 18 25 1021.6 1021.7 0.0
29/12:30pm 9.1 1.8 5.5 78 1.6 S 33 46 18 25 1021.6 1021.7 0.0
29/12:00pm 8.9 1.0 6.0 82 1.3 SSW 37 46 20 25 1021.7 1021.8 0.0
29/11:30am 8.8 1.8 6.1 83 1.2 SSW 32 41 17 22 1021.9 1022.0 0.0
29/11:00am 8.9 1.7 6.0 82 1.3 SSW 33 43 18 23 1021.9 1022.0 0.0
29/10:30am 8.9 0.9 5.6 80 1.5 SSW 37 52 20 28 1021.7 1021.8 0.0
29/10:22am 8.8 1.5 5.5 80 1.5 SSW 33 52 18 28 1021.6 1021.7 0.0
29/10:00am 8.8 1.2 5.9 82 1.3 SSW 35 46 19 25 1021.6 1021.7 0.0
29/09:30am 8.9 0.6 6.2 83 1.2 SSW 39 50 21 27 1021.3 1021.4 0.0
29/09:00am 8.8 0.9 6.1 83 1.2 SSW 37 52 20 28 1021.2 1021.3 13.2
29/08:38am 8.8 0.2 6.6 86 1.0 SSW 41 59 22 32 1020.7 1020.8 13.0
29/08:30am 8.8 0.7 6.9 88 0.9 SSW 39 48 21 26 1020.6 1020.7 13.0
29/08:00am 8.7 1.8 7.2 90 0.7 S 33 44 18 24 1020.3 1020.4 13.0
29/07:56am 8.8 1.9 7.1 89 0.8 SSW 33 52 18 28 1020.3 1020.4 12.8
29/07:30am 9.0 1.2 6.8 86 1.0 S 37 54 20 29 1019.7 1019.8 12.8
29/07:00am 9.0 1.3 7.0 87 0.9 S 37 52 20 28 1019.3 1019.4 12.4
29/06:30am 9.0 1.3 7.0 87 0.9 S 37 54 20 29 1018.7 1018.8 11.8
29/06:00am 8.9 2.5 7.0 88 0.9 S 30 48 16 26 1018.5 1018.6 11.0
29/05:58am 8.8 2.8 6.9 88 0.9 S 28 48 15 26 1018.4 1018.5 11.0
29/05:30am 8.3 4.7 6.9 91 0.7 S 15 19 8 10 1018.3 1018.4 10.4
29/05:00am 8.0 3.7 6.9 93 0.5 SW 19 24 10 13 1018.1 1018.2 10.0
29/04:30am 7.3 2.8 6.2 93 0.5 SW 19 20 10 11 1018.1 1018.2 9.4
29/04:00am 7.2 2.6 5.7 90 0.7 SW 19 24 10 13 1018.2 1018.3 9.0
29/03:30am 7.0 1.7 5.2 88 0.8 SSW 22 28 12 15 1018.0 1018.1 8.8
29/03:00am 6.9 1.6 5.1 88 0.8 SSW 22 26 12 14 1018.0 1018.1 8.8
29/02:30am 6.7 1.8 4.9 88 0.8 SSW 20 24 11 13 1018.2 1018.3 8.6
29/02:00am 6.9 0.8 4.7 86 1.0 SSW 26 30 14 16 1018.1 1018.2 8.4
29/01:30am 7.5 0.7 5.3 86 1.0 SSW 30 37 16 20 1017.8 1017.9 8.4
29/01:00am 7.3 1.2 4.6 83 1.2 SSW 26 32 14 17 1017.8 1017.9 8.4
29/12:30am 7.8 -0.8 4.7 81 1.4 SSW 39 46 21 25 1017.7 1017.8 8.4
29/12:00am 7.6 -0.4 5.7 88 0.9 WSW 37 46 20 25 1017.4 1017.5 8.4
 
Date/Time
EST
Tmp

°C
App
Tmp
°C
Dew
Point
°C
Rel
Hum
%
Delta-T

°C
Wind Press
QNH
hPa
Press
MSL
hPa
Rain
since
9 am
mm
Dir
 
Spd
km/h
Gust
km/h
Spd
kts
Gust
kts
28/11:30pm 6.5 -4.3 4.3 86 0.9 WSW 50 61 27 33 1017.1 1017.2 8.4
28/11:28pm 6.7 -4.0 4.7 87 0.9 WSW 50 61 27 33 1017.2 1017.3 8.4
28/11:05pm 5.7 -5.5 4.0 89 0.7 W 52 72 28 39 1016.4 1016.5 8.4
28/11:00pm 5.3 -4.2 4.0 91 0.5 W 43 69 23 37 1016.4 1016.5 8.2
28/10:30pm 5.6 -5.2 3.9 89 0.7 W 50 63 27 34 1017.8 1017.9 7.6
28/10:00pm 4.6 -4.3 2.9 89 0.7 W 39 52 21 28 1018.3 1018.4 7.4
28/09:57pm 4.8 -4.4 3.3 90 0.6 W 41 61 22 33 1018.4 1018.5 7.4
28/09:30pm 4.0 -5.7 2.7 91 0.5 W 43 56 23 30 1018.9 1019.0 7.2
28/09:08pm 3.2 -6.3 2.0 92 0.5 W 41 59 22 32 1019.5 1019.6 5.8
28/09:00pm 3.9 -6.0 2.6 91 0.5 W 44 61 24 33 1019.5 1019.6 5.0
28/08:30pm 3.9 -6.4 2.6 91 0.5 W 46 59 25 32 1020.2 1020.3 4.0
28/08:00pm 4.2 -5.7 2.7 90 0.6 W 44 57 24 31 1020.6 1020.7 3.4
28/07:30pm 4.5 -7.3 2.8 89 0.7 WSW 54 65 29 35 1021.4 1021.5 3.2
28/07:00pm 5.1 -5.5 3.3 88 0.7 WSW 48 59 26 32 1022.0 1022.1 2.4
28/06:30pm 5.4 -3.5 2.8 83 1.1 WSW 39 48 21 26 1022.4 1022.5 2.2
28/06:00pm 4.9 -5.0 2.8 86 0.9 SW 44 57 24 31 1022.9 1023.0 1.8
28/05:30pm 5.0 -4.4 2.2 82 1.1 SW 41 50 22 27 1022.8 1022.9 1.4
28/05:02pm 5.6 -4.2 2.4 80 1.3 SW 43 65 23 35 1023.1 1023.2 1.0
28/05:00pm 5.9 -3.7 1.4 73 1.8 SW 41 56 22 30 1023.1 1023.2 1.0
28/04:48pm 6.1 -4.7 1.8 74 1.7 SW 48 69 26 37 1023.1 1023.2 1.0
28/04:40pm 5.8 -5.8 1.7 75 1.6 SW 52 69 28 37 1022.9 1023.0 1.0
28/04:30pm 7.4 -1.9 0.4 61 2.8 SW 39 57 21 31 1022.9 1023.0 1.0
28/04:24pm 7.1 -1.7 1.2 66 2.4 SW 37 57 20 31 1023.0 1023.1 1.0
28/04:00pm 6.8 -3.0 2.3 73 1.8 SW 43 56 23 30 1023.0 1023.1 1.0
28/03:54pm 6.7 -1.2 2.2 73 1.8 SW 33 52 18 28 1023.1 1023.2 1.0
28/03:30pm 5.9 -3.1 2.4 78 1.4 SW 39 50 21 27 1023.8 1023.9 1.0
28/03:20pm 5.8 -4.4 3.3 84 1.0 SSW 46 65 25 35 1024.0 1024.1 1.0
28/03:00pm 7.2 -2.8 1.9 69 2.2 SSW 44 57 24 31 1023.8 1023.9 0.8
28/02:30pm 6.7 -2.3 2.2 73 1.8 SSW 39 57 21 31 1023.9 1024.0 0.8
28/02:26pm 6.2 -4.1 2.5 77 1.5 SSW 46 65 25 35 1024.0 1024.1 0.8
28/02:00pm 7.9 -1.6 1.5 64 2.6 SSW 41 50 22 27 1023.9 1024.0 0.8
28/01:30pm 6.3 -3.6 2.6 77 1.5 S 44 67 24 36 1024.6 1024.7 0.8
28/01:25pm 7.2 -2.2 2.1 70 2.1 SSW 41 67 22 36 1024.3 1024.4 0.8
28/01:00pm 8.3 -1.1 2.1 65 2.6 SSW 41 54 22 29 1024.7 1024.8 0.8
28/12:30pm 8.3 -1.1 2.3 66 2.5 SSW 41 52 22 28 1024.9 1025.0 0.8
28/12:00pm 7.2 -1.4 2.5 72 1.9 S 37 54 20 29 1025.4 1025.5 0.8
28/11:30am 7.9 0.1 1.7 65 2.5 SSW 32 46 17 25 1025.5 1025.6 0.8
28/11:00am 6.4 -0.3 3.4 81 1.3 SSW 28 41 15 22 1025.9 1026.0 0.8
28/10:30am 6.2 -1.4 3.0 80 1.3 S 32 41 17 22 1026.2 1026.3 0.2
28/10:00am 7.6 0.7 2.5 70 2.1 SSW 28 35 15 19 1025.9 1026.0 0.0
28/09:30am 6.4 -2.6 2.7 77 1.5 S 39 59 21 32 1025.9 1026.0 0.0
28/09:28am 6.2 -2.4 2.8 79 1.4 SSW 37 59 20 32 1026.0 1026.1 0.0
28/09:23am 6.7 -0.9 2.6 75 1.7 SW 32 59 17 32 1025.8 1025.9 0.0
28/09:22am 7.1 -0.1 2.8 74 1.8 SW 30 59 16 32 1025.9 1026.0 0.0
28/09:00am 6.3 -1.5 2.9 79 1.4 SW 33 50 18 27 1026.0 1026.1 1.0
28/08:52am 7.0 -0.1 3.3 77 1.6 SSW 30 50 16 27 1026.0 1026.1 1.0
28/08:30am 6.2 -0.7 2.7 78 1.4 S 28 39 15 21 1025.9 1026.0 1.0
28/08:00am 6.4 0.4 3.6 82 1.2 S 24 30 13 16 1026.0 1026.1 0.8
28/07:40am 5.4 -2.2 2.9 84 1.0 SSW 32 46 17 25 1025.8 1025.9 0.8
28/07:30am 5.9 -3.7 3.6 85 1.0 SW 43 50 23 27 1025.6 1025.7 0.6
28/07:00am 6.6 -1.3 2.3 74 1.8 SSW 33 39 18 21 1025.1 1025.2 0.6
28/06:38am 6.0 -1.4 1.9 75 1.7 SSW 30 48 16 26 1025.1 1025.2 0.6
28/06:30am 6.0 -2.6 2.5 78 1.4 SSW 37 50 20 27 1024.9 1025.0 0.6
28/06:18am 6.9 -0.7 2.6 74 1.8 SSW 32 57 17 31 1024.7 1024.8 0.6
28/06:00am 7.0 0.6 1.1 66 2.3 SSW 24 37 13 20 1024.6 1024.7 0.6
28/05:30am 7.2 -0.3 1.3 66 2.4 SSW 30 35 16 19 1024.4 1024.5 0.6
28/05:00am 7.3 0.7 2.2 70 2.1 SSW 26 32 14 17 1024.1 1024.2 0.6
28/04:30am 7.3 1.8 3.9 79 1.5 SSW 22 30 12 16 1023.9 1024.0 0.6
28/04:00am 7.2 1.4 4.3 82 1.2 SSW 24 28 13 15 1023.8 1023.9 0.4
28/03:30am 7.2 1.8 4.7 84 1.1 SSW 22 32 12 17 1023.5 1023.6 0.4
28/03:00am 7.3 2.1 5.6 89 0.8 SSW 22 28 12 15 1023.4 1023.5 0.4
28/02:30am 7.2 0.1 5.7 90 0.7 SSW 32 41 17 22 1023.4 1023.5 0.4
28/02:00am 7.5 0.4 6.4 93 0.5 SSW 33 39 18 21 1023.2 1023.3 0.4
28/01:30am 8.0 1.5 6.5 90 0.7 SSW 30 37 16 20 1022.9 1023.0 0.2
28/01:00am 7.9 1.8 6.8 93 0.5 WSW 28 33 15 18 1022.7 1022.8 0.2
28/12:30am 8.6 4.0 6.4 86 1.0 WSW 20 24 11 13 1022.7 1022.8 0.0
28/12:00am 8.4 4.4 6.5 88 0.9 WSW 17 19 9 10 1022.6 1022.7 0.0
 
Date/Time
EST
Tmp

°C
App
Tmp
°C
Dew
Point
°C
Rel
Hum
%
Delta-T

°C
Wind Press
QNH
hPa
Press
MSL
hPa
Rain
since
9 am
mm
Dir
 
Spd
km/h
Gust
km/h
Spd
kts
Gust
kts
27/11:30pm 8.5 4.6 7.1 91 0.7 NNE 17 20 9 11 1022.6 1022.7 0.0
27/11:00pm 7.6 4.6 6.2 91 0.6 NE 11 13 6 7 1023.0 1023.1 0.0
27/10:30pm 8.7 5.9 6.8 88 0.9 NE 11 13 6 7 1023.1 1023.2 0.0
27/10:00pm 9.2 5.2 6.5 83 1.2 NE 17 17 9 9 1022.9 1023.0 0.0
27/09:30pm 9.1 5.8 6.4 83 1.2 NE 13 13 7 7 1023.2 1023.3 0.0
27/09:00pm 9.0 6.7 5.6 79 1.5 NE 7 9 4 5 1023.1 1023.2 0.0
27/08:30pm 9.3 6.7 6.2 81 1.4 NE 9 9 5 5 1023.0 1023.1 0.0
27/08:00pm 9.5 6.2 6.4 81 1.4 NE 13 15 7 8 1022.9 1023.0 0.0
27/07:30pm 9.3 6.8 6.4 82 1.3 NE 9 11 5 6 1022.7 1022.8 0.0
27/07:00pm 9.2 6.7 6.6 84 1.2 NE 9 9 5 5 1022.5 1022.6 0.0
27/06:30pm 9.6 7.1 6.5 81 1.4 NE 9 13 5 7 1022.3 1022.4 0.0
27/06:00pm 9.6 7.5 6.7 82 1.3 NE 7 9 4 5 1022.1 1022.2 0.0

Latest Capital City Observations: Canberra | Sydney | Melbourne | Brisbane | Adelaide | Perth | Hobart | Darwin

Other Formats:

Comma delimited format used in spreadsheet applications
http://www.bom.gov.au/fwo/IDT60901/IDT60901.94951.axf

JavaScript Object Notation format (JSON) in row-major order
http://www.bom.gov.au/fwo/IDT60901/IDT60901.94951.json